sensor_id;sensor_type;location;lat;lon;timestamp;P1;durP1;ratioP1;P2;durP2;ratioP2
73023;SDS011;72676;47.526;8.538;2024-01-10T00:00:30;63.17;;;25.30;;
73023;SDS011;72676;47.526;8.538;2024-01-10T00:02:57;54.07;;;22.53;;
73023;SDS011;72676;47.526;8.538;2024-01-10T00:05:23;73.50;;;25.80;;
73023;SDS011;72676;47.526;8.538;2024-01-10T00:07:50;67.23;;;27.10;;
73023;SDS011;72676;47.526;8.538;2024-01-10T00:10:16;66.53;;;26.07;;
73023;SDS011;72676;47.526;8.538;2024-01-10T00:12:43;68.10;;;24.97;;
73023;SDS011;72676;47.526;8.538;2024-01-10T00:15:10;62.30;;;24.83;;
73023;SDS011;72676;47.526;8.538;2024-01-10T00:17:37;64.13;;;24.87;;
73023;SDS011;72676;47.526;8.538;2024-01-10T00:20:03;60.10;;;23.47;;
73023;SDS011;72676;47.526;8.538;2024-01-10T00:22:31;63.27;;;25.80;;
73023;SDS011;72676;47.526;8.538;2024-01-10T00:24:57;68.63;;;26.37;;
73023;SDS011;72676;47.526;8.538;2024-01-10T00:27:24;68.70;;;24.57;;
73023;SDS011;72676;47.526;8.538;2024-01-10T00:29:51;68.03;;;26.90;;
73023;SDS011;72676;47.526;8.538;2024-01-10T00:32:18;69.83;;;26.43;;
73023;SDS011;72676;47.526;8.538;2024-01-10T00:34:44;65.50;;;25.47;;
73023;SDS011;72676;47.526;8.538;2024-01-10T00:37:11;59.63;;;24.70;;
73023;SDS011;72676;47.526;8.538;2024-01-10T00:39:37;75.00;;;26.50;;
73023;SDS011;72676;47.526;8.538;2024-01-10T00:42:04;69.37;;;26.50;;
73023;SDS011;72676;47.526;8.538;2024-01-10T00:44:30;64.87;;;24.40;;
73023;SDS011;72676;47.526;8.538;2024-01-10T00:46:56;79.87;;;27.33;;
73023;SDS011;72676;47.526;8.538;2024-01-10T00:49:23;68.93;;;24.80;;
73023;SDS011;72676;47.526;8.538;2024-01-10T00:51:49;68.10;;;26.73;;
73023;SDS011;72676;47.526;8.538;2024-01-10T00:54:16;66.57;;;24.73;;
73023;SDS011;72676;47.526;8.538;2024-01-10T00:56:43;70.20;;;27.07;;
73023;SDS011;72676;47.526;8.538;2024-01-10T00:59:09;65.03;;;24.50;;
73023;SDS011;72676;47.526;8.538;2024-01-10T01:01:36;65.43;;;23.50;;
73023;SDS011;72676;47.526;8.538;2024-01-10T01:04:03;75.70;;;26.80;;
73023;SDS011;72676;47.526;8.538;2024-01-10T01:06:29;63.07;;;23.60;;
73023;SDS011;72676;47.526;8.538;2024-01-10T01:08:56;77.30;;;27.63;;
73023;SDS011;72676;47.526;8.538;2024-01-10T01:11:22;70.80;;;26.83;;
73023;SDS011;72676;47.526;8.538;2024-01-10T01:13:49;58.57;;;24.57;;
73023;SDS011;72676;47.526;8.538;2024-01-10T01:16:16;68.60;;;25.23;;
73023;SDS011;72676;47.526;8.538;2024-01-10T01:18:42;68.90;;;26.10;;
73023;SDS011;72676;47.526;8.538;2024-01-10T01:21:12;65.00;;;26.00;;
73023;SDS011;72676;47.526;8.538;2024-01-10T01:23:38;65.43;;;25.73;;
73023;SDS011;72676;47.526;8.538;2024-01-10T01:26:08;61.07;;;24.47;;
73023;SDS011;72676;47.526;8.538;2024-01-10T01:28:34;62.20;;;25.27;;
73023;SDS011;72676;47.526;8.538;2024-01-10T01:31:01;72.30;;;26.27;;
73023;SDS011;72676;47.526;8.538;2024-01-10T01:33:28;71.47;;;26.60;;
73023;SDS011;72676;47.526;8.538;2024-01-10T01:35:55;68.20;;;27.03;;
73023;SDS011;72676;47.526;8.538;2024-01-10T01:38:21;64.80;;;25.37;;
73023;SDS011;72676;47.526;8.538;2024-01-10T01:40:48;80.43;;;26.67;;
73023;SDS011;72676;47.526;8.538;2024-01-10T01:43:22;67.17;;;26.23;;
73023;SDS011;72676;47.526;8.538;2024-01-10T01:45:53;64.80;;;28.50;;
73023;SDS011;72676;47.526;8.538;2024-01-10T01:48:21;71.13;;;27.17;;
73023;SDS011;72676;47.526;8.538;2024-01-10T01:50:54;72.27;;;26.30;;
73023;SDS011;72676;47.526;8.538;2024-01-10T01:53:24;69.40;;;27.20;;
73023;SDS011;72676;47.526;8.538;2024-01-10T01:55:51;77.90;;;28.07;;
73023;SDS011;72676;47.526;8.538;2024-01-10T01:58:18;68.90;;;25.77;;
73023;SDS011;72676;47.526;8.538;2024-01-10T02:00:46;66.70;;;25.17;;
73023;SDS011;72676;47.526;8.538;2024-01-10T02:03:13;69.37;;;26.37;;
73023;SDS011;72676;47.526;8.538;2024-01-10T02:05:40;73.80;;;26.37;;
73023;SDS011;72676;47.526;8.538;2024-01-10T02:08:07;66.87;;;25.33;;
73023;SDS011;72676;47.526;8.538;2024-01-10T02:10:34;62.50;;;24.90;;
73023;SDS011;72676;47.526;8.538;2024-01-10T02:13:01;66.07;;;26.77;;
73023;SDS011;72676;47.526;8.538;2024-01-10T02:15:28;69.77;;;26.37;;
73023;SDS011;72676;47.526;8.538;2024-01-10T02:17:54;71.30;;;27.73;;
73023;SDS011;72676;47.526;8.538;2024-01-10T02:20:21;68.77;;;26.97;;
73023;SDS011;72676;47.526;8.538;2024-01-10T02:22:48;60.70;;;24.93;;
73023;SDS011;72676;47.526;8.538;2024-01-10T02:25:16;64.90;;;27.07;;
73023;SDS011;72676;47.526;8.538;2024-01-10T02:27:43;61.80;;;25.17;;
73023;SDS011;72676;47.526;8.538;2024-01-10T02:30:09;71.37;;;26.17;;
73023;SDS011;72676;47.526;8.538;2024-01-10T02:32:37;64.63;;;26.60;;
73023;SDS011;72676;47.526;8.538;2024-01-10T02:35:04;69.27;;;26.30;;
73023;SDS011;72676;47.526;8.538;2024-01-10T02:37:31;65.53;;;26.00;;
73023;SDS011;72676;47.526;8.538;2024-01-10T02:39:57;61.40;;;24.33;;
73023;SDS011;72676;47.526;8.538;2024-01-10T02:42:24;76.43;;;27.50;;
73023;SDS011;72676;47.526;8.538;2024-01-10T02:44:50;68.33;;;25.47;;
73023;SDS011;72676;47.526;8.538;2024-01-10T02:47:17;74.50;;;27.13;;
73023;SDS011;72676;47.526;8.538;2024-01-10T02:49:43;64.47;;;24.47;;
73023;SDS011;72676;47.526;8.538;2024-01-10T02:52:10;66.10;;;26.20;;
73023;SDS011;72676;47.526;8.538;2024-01-10T02:54:36;71.63;;;27.70;;
73023;SDS011;72676;47.526;8.538;2024-01-10T02:57:03;75.90;;;27.57;;
73023;SDS011;72676;47.526;8.538;2024-01-10T02:59:29;62.83;;;25.00;;
73023;SDS011;72676;47.526;8.538;2024-01-10T03:01:56;64.20;;;26.00;;
73023;SDS011;72676;47.526;8.538;2024-01-10T03:04:23;71.33;;;25.97;;
73023;SDS011;72676;47.526;8.538;2024-01-10T03:06:49;74.37;;;27.87;;
73023;SDS011;72676;47.526;8.538;2024-01-10T03:09:16;64.63;;;26.37;;
73023;SDS011;72676;47.526;8.538;2024-01-10T03:11:43;74.37;;;27.47;;
73023;SDS011;72676;47.526;8.538;2024-01-10T03:14:10;68.13;;;25.73;;
73023;SDS011;72676;47.526;8.538;2024-01-10T03:16:37;71.77;;;26.00;;
73023;SDS011;72676;47.526;8.538;2024-01-10T03:19:04;63.70;;;25.47;;
73023;SDS011;72676;47.526;8.538;2024-01-10T03:21:31;72.80;;;26.97;;
73023;SDS011;72676;47.526;8.538;2024-01-10T03:23:58;76.90;;;27.00;;
73023;SDS011;72676;47.526;8.538;2024-01-10T03:26:26;74.83;;;26.20;;
73023;SDS011;72676;47.526;8.538;2024-01-10T03:28:53;76.13;;;28.20;;
73023;SDS011;72676;47.526;8.538;2024-01-10T03:31:20;70.90;;;27.23;;
73023;SDS011;72676;47.526;8.538;2024-01-10T03:33:47;72.40;;;28.17;;
73023;SDS011;72676;47.526;8.538;2024-01-10T03:36:17;69.47;;;25.00;;
73023;SDS011;72676;47.526;8.538;2024-01-10T03:38:44;69.03;;;26.33;;
73023;SDS011;72676;47.526;8.538;2024-01-10T03:41:14;74.90;;;28.27;;
73023;SDS011;72676;47.526;8.538;2024-01-10T03:43:41;73.37;;;25.43;;
73023;SDS011;72676;47.526;8.538;2024-01-10T03:46:09;72.90;;;27.00;;
73023;SDS011;72676;47.526;8.538;2024-01-10T03:48:36;63.37;;;26.97;;
73023;SDS011;72676;47.526;8.538;2024-01-10T03:51:03;72.87;;;27.93;;
73023;SDS011;72676;47.526;8.538;2024-01-10T03:53:30;83.00;;;30.40;;
73023;SDS011;72676;47.526;8.538;2024-01-10T03:55:57;70.37;;;25.83;;
73023;SDS011;72676;47.526;8.538;2024-01-10T03:58:23;77.03;;;27.87;;
73023;SDS011;72676;47.526;8.538;2024-01-10T04:00:50;66.40;;;24.83;;
73023;SDS011;72676;47.526;8.538;2024-01-10T04:03:16;72.87;;;27.40;;
73023;SDS011;72676;47.526;8.538;2024-01-10T04:05:43;68.43;;;28.30;;
73023;SDS011;72676;47.526;8.538;2024-01-10T04:08:10;69.13;;;25.10;;
73023;SDS011;72676;47.526;8.538;2024-01-10T04:10:36;65.40;;;26.03;;
73023;SDS011;72676;47.526;8.538;2024-01-10T04:13:03;69.47;;;27.20;;
73023;SDS011;72676;47.526;8.538;2024-01-10T04:15:30;76.47;;;25.73;;
73023;SDS011;72676;47.526;8.538;2024-01-10T04:17:56;71.17;;;26.80;;
73023;SDS011;72676;47.526;8.538;2024-01-10T04:20:23;69.97;;;26.37;;
73023;SDS011;72676;47.526;8.538;2024-01-10T04:22:49;63.17;;;25.33;;
73023;SDS011;72676;47.526;8.538;2024-01-10T04:25:16;68.67;;;25.73;;
73023;SDS011;72676;47.526;8.538;2024-01-10T04:27:42;70.67;;;26.13;;
73023;SDS011;72676;47.526;8.538;2024-01-10T04:30:08;67.93;;;27.50;;
73023;SDS011;72676;47.526;8.538;2024-01-10T04:32:35;74.80;;;26.83;;
73023;SDS011;72676;47.526;8.538;2024-01-10T04:35:02;72.67;;;26.40;;
73023;SDS011;72676;47.526;8.538;2024-01-10T04:37:30;74.40;;;27.97;;
73023;SDS011;72676;47.526;8.538;2024-01-10T04:39:56;69.10;;;26.30;;
73023;SDS011;72676;47.526;8.538;2024-01-10T04:42:22;64.77;;;23.73;;
73023;SDS011;72676;47.526;8.538;2024-01-10T04:44:49;68.77;;;27.40;;
73023;SDS011;72676;47.526;8.538;2024-01-10T04:47:15;62.83;;;26.33;;
73023;SDS011;72676;47.526;8.538;2024-01-10T04:49:42;65.40;;;27.27;;
73023;SDS011;72676;47.526;8.538;2024-01-10T04:52:09;70.83;;;26.90;;
73023;SDS011;72676;47.526;8.538;2024-01-10T04:54:35;68.80;;;26.80;;
73023;SDS011;72676;47.526;8.538;2024-01-10T04:57:02;75.33;;;27.53;;
73023;SDS011;72676;47.526;8.538;2024-01-10T04:59:28;77.23;;;27.43;;
73023;SDS011;72676;47.526;8.538;2024-01-10T05:01:55;75.40;;;27.53;;
73023;SDS011;72676;47.526;8.538;2024-01-10T05:04:21;69.87;;;27.33;;
73023;SDS011;72676;47.526;8.538;2024-01-10T05:06:48;66.23;;;27.40;;
73023;SDS011;72676;47.526;8.538;2024-01-10T05:09:14;71.80;;;28.07;;
73023;SDS011;72676;47.526;8.538;2024-01-10T05:11:42;72.93;;;27.73;;
73023;SDS011;72676;47.526;8.538;2024-01-10T05:14:10;76.80;;;28.97;;
73023;SDS011;72676;47.526;8.538;2024-01-10T05:16:36;67.60;;;25.77;;
73023;SDS011;72676;47.526;8.538;2024-01-10T05:19:03;76.30;;;28.30;;
73023;SDS011;72676;47.526;8.538;2024-01-10T05:21:32;77.93;;;29.63;;
73023;SDS011;72676;47.526;8.538;2024-01-10T05:23:59;70.83;;;27.40;;
73023;SDS011;72676;47.526;8.538;2024-01-10T05:26:26;76.30;;;27.77;;
73023;SDS011;72676;47.526;8.538;2024-01-10T05:28:52;62.50;;;26.03;;
73023;SDS011;72676;47.526;8.538;2024-01-10T05:31:19;70.43;;;27.23;;
73023;SDS011;72676;47.526;8.538;2024-01-10T05:33:45;74.00;;;27.70;;
73023;SDS011;72676;47.526;8.538;2024-01-10T05:36:12;73.27;;;28.30;;
73023;SDS011;72676;47.526;8.538;2024-01-10T05:38:39;66.43;;;26.20;;
73023;SDS011;72676;47.526;8.538;2024-01-10T05:41:06;70.03;;;27.60;;
73023;SDS011;72676;47.526;8.538;2024-01-10T05:43:33;71.03;;;26.43;;
73023;SDS011;72676;47.526;8.538;2024-01-10T05:45:59;76.47;;;28.60;;
73023;SDS011;72676;47.526;8.538;2024-01-10T05:48:26;81.07;;;31.90;;
73023;SDS011;72676;47.526;8.538;2024-01-10T05:50:52;74.60;;;28.87;;
73023;SDS011;72676;47.526;8.538;2024-01-10T05:53:19;73.23;;;28.43;;
73023;SDS011;72676;47.526;8.538;2024-01-10T05:55:45;71.00;;;26.80;;
73023;SDS011;72676;47.526;8.538;2024-01-10T05:58:12;69.73;;;26.83;;
73023;SDS011;72676;47.526;8.538;2024-01-10T06:00:38;71.40;;;26.60;;
73023;SDS011;72676;47.526;8.538;2024-01-10T06:03:05;65.37;;;26.10;;
73023;SDS011;72676;47.526;8.538;2024-01-10T06:05:31;70.27;;;27.63;;
73023;SDS011;72676;47.526;8.538;2024-01-10T06:07:58;72.90;;;27.60;;
73023;SDS011;72676;47.526;8.538;2024-01-10T06:10:25;77.20;;;27.40;;
73023;SDS011;72676;47.526;8.538;2024-01-10T06:12:51;66.43;;;24.70;;
73023;SDS011;72676;47.526;8.538;2024-01-10T06:15:18;77.23;;;27.30;;
73023;SDS011;72676;47.526;8.538;2024-01-10T06:17:44;73.27;;;27.60;;
73023;SDS011;72676;47.526;8.538;2024-01-10T06:20:11;69.83;;;26.57;;
73023;SDS011;72676;47.526;8.538;2024-01-10T06:22:37;75.63;;;28.30;;
73023;SDS011;72676;47.526;8.538;2024-01-10T06:25:04;76.23;;;28.10;;
73023;SDS011;72676;47.526;8.538;2024-01-10T06:27:31;74.30;;;26.67;;
73023;SDS011;72676;47.526;8.538;2024-01-10T06:29:57;77.70;;;27.57;;
73023;SDS011;72676;47.526;8.538;2024-01-10T06:32:24;71.90;;;27.10;;
73023;SDS011;72676;47.526;8.538;2024-01-10T06:34:50;69.77;;;26.53;;
73023;SDS011;72676;47.526;8.538;2024-01-10T06:37:17;73.57;;;27.60;;
73023;SDS011;72676;47.526;8.538;2024-01-10T06:39:43;76.53;;;28.00;;
73023;SDS011;72676;47.526;8.538;2024-01-10T06:42:10;77.07;;;27.20;;
73023;SDS011;72676;47.526;8.538;2024-01-10T06:44:38;75.93;;;28.20;;
73023;SDS011;72676;47.526;8.538;2024-01-10T06:47:05;69.63;;;27.07;;
73023;SDS011;72676;47.526;8.538;2024-01-10T06:49:32;70.20;;;25.50;;
73023;SDS011;72676;47.526;8.538;2024-01-10T06:51:58;69.63;;;26.97;;
73023;SDS011;72676;47.526;8.538;2024-01-10T06:54:26;84.83;;;29.17;;
73023;SDS011;72676;47.526;8.538;2024-01-10T06:56:53;70.73;;;27.13;;
73023;SDS011;72676;47.526;8.538;2024-01-10T06:59:19;79.33;;;27.50;;
73023;SDS011;72676;47.526;8.538;2024-01-10T07:01:50;65.47;;;25.80;;
73023;SDS011;72676;47.526;8.538;2024-01-10T07:04:18;67.70;;;24.57;;
73023;SDS011;72676;47.526;8.538;2024-01-10T07:06:47;76.00;;;28.53;;
73023;SDS011;72676;47.526;8.538;2024-01-10T07:09:13;78.73;;;28.23;;
73023;SDS011;72676;47.526;8.538;2024-01-10T07:11:46;70.27;;;26.03;;
73023;SDS011;72676;47.526;8.538;2024-01-10T07:14:16;66.40;;;26.07;;
73023;SDS011;72676;47.526;8.538;2024-01-10T07:16:43;70.93;;;28.03;;
73023;SDS011;72676;47.526;8.538;2024-01-10T07:19:12;76.90;;;28.20;;
73023;SDS011;72676;47.526;8.538;2024-01-10T07:21:40;76.53;;;29.97;;
73023;SDS011;72676;47.526;8.538;2024-01-10T07:24:08;73.80;;;26.00;;
73023;SDS011;72676;47.526;8.538;2024-01-10T07:26:38;79.00;;;28.23;;
73023;SDS011;72676;47.526;8.538;2024-01-10T07:29:04;71.03;;;26.20;;
73023;SDS011;72676;47.526;8.538;2024-01-10T07:31:34;77.23;;;28.63;;
73023;SDS011;72676;47.526;8.538;2024-01-10T07:34:01;77.90;;;28.00;;
73023;SDS011;72676;47.526;8.538;2024-01-10T07:36:32;74.20;;;28.23;;
73023;SDS011;72676;47.526;8.538;2024-01-10T07:39:00;73.03;;;27.10;;
73023;SDS011;72676;47.526;8.538;2024-01-10T07:41:29;73.90;;;27.47;;
73023;SDS011;72676;47.526;8.538;2024-01-10T07:43:56;73.43;;;27.47;;
73023;SDS011;72676;47.526;8.538;2024-01-10T07:46:23;73.53;;;26.40;;
73023;SDS011;72676;47.526;8.538;2024-01-10T07:48:50;77.40;;;27.10;;
73023;SDS011;72676;47.526;8.538;2024-01-10T07:51:16;83.00;;;28.07;;
73023;SDS011;72676;47.526;8.538;2024-01-10T07:53:43;75.50;;;27.37;;
73023;SDS011;72676;47.526;8.538;2024-01-10T07:56:09;74.10;;;26.50;;
73023;SDS011;72676;47.526;8.538;2024-01-10T07:58:38;79.70;;;28.57;;
73023;SDS011;72676;47.526;8.538;2024-01-10T08:01:05;69.60;;;27.10;;
73023;SDS011;72676;47.526;8.538;2024-01-10T08:03:31;89.83;;;30.83;;
73023;SDS011;72676;47.526;8.538;2024-01-10T08:05:59;64.20;;;26.27;;
73023;SDS011;72676;47.526;8.538;2024-01-10T08:08:26;75.67;;;28.03;;
73023;SDS011;72676;47.526;8.538;2024-01-10T08:10:52;73.77;;;27.87;;
73023;SDS011;72676;47.526;8.538;2024-01-10T08:13:19;68.47;;;26.40;;
73023;SDS011;72676;47.526;8.538;2024-01-10T08:15:45;75.40;;;28.03;;
73023;SDS011;72676;47.526;8.538;2024-01-10T08:18:12;74.87;;;28.33;;
73023;SDS011;72676;47.526;8.538;2024-01-10T08:20:40;77.17;;;30.43;;
73023;SDS011;72676;47.526;8.538;2024-01-10T08:23:06;89.93;;;29.10;;
73023;SDS011;72676;47.526;8.538;2024-01-10T08:25:34;70.00;;;26.63;;
73023;SDS011;72676;47.526;8.538;2024-01-10T08:28:00;71.63;;;28.37;;
73023;SDS011;72676;47.526;8.538;2024-01-10T08:30:27;72.07;;;26.03;;
73023;SDS011;72676;47.526;8.538;2024-01-10T08:32:54;72.47;;;26.97;;
73023;SDS011;72676;47.526;8.538;2024-01-10T08:35:20;73.87;;;28.13;;
73023;SDS011;72676;47.526;8.538;2024-01-10T08:37:49;73.30;;;27.33;;
73023;SDS011;72676;47.526;8.538;2024-01-10T08:40:16;74.93;;;27.90;;
73023;SDS011;72676;47.526;8.538;2024-01-10T08:42:43;71.00;;;27.23;;
73023;SDS011;72676;47.526;8.538;2024-01-10T08:45:10;74.77;;;29.47;;
73023;SDS011;72676;47.526;8.538;2024-01-10T08:47:37;74.83;;;29.40;;
73023;SDS011;72676;47.526;8.538;2024-01-10T08:50:04;68.20;;;26.87;;
73023;SDS011;72676;47.526;8.538;2024-01-10T08:52:31;71.77;;;27.27;;
73023;SDS011;72676;47.526;8.538;2024-01-10T08:54:58;77.00;;;28.53;;
73023;SDS011;72676;47.526;8.538;2024-01-10T08:57:25;70.30;;;27.57;;
73023;SDS011;72676;47.526;8.538;2024-01-10T08:59:53;70.60;;;25.53;;
73023;SDS011;72676;47.526;8.538;2024-01-10T09:02:20;88.23;;;29.93;;
73023;SDS011;72676;47.526;8.538;2024-01-10T09:04:47;75.60;;;29.00;;
73023;SDS011;72676;47.526;8.538;2024-01-10T09:07:13;82.63;;;28.33;;
73023;SDS011;72676;47.526;8.538;2024-01-10T09:09:40;84.83;;;30.43;;
73023;SDS011;72676;47.526;8.538;2024-01-10T09:12:06;67.93;;;27.03;;
73023;SDS011;72676;47.526;8.538;2024-01-10T09:14:33;72.57;;;27.30;;
73023;SDS011;72676;47.526;8.538;2024-01-10T09:16:59;80.13;;;26.67;;
73023;SDS011;72676;47.526;8.538;2024-01-10T09:19:29;67.57;;;27.17;;
73023;SDS011;72676;47.526;8.538;2024-01-10T09:21:56;70.70;;;28.70;;
73023;SDS011;72676;47.526;8.538;2024-01-10T09:24:23;77.40;;;28.97;;
73023;SDS011;72676;47.526;8.538;2024-01-10T09:26:55;80.43;;;28.73;;
73023;SDS011;72676;47.526;8.538;2024-01-10T09:29:23;73.40;;;27.83;;
73023;SDS011;72676;47.526;8.538;2024-01-10T09:31:50;70.50;;;26.57;;
73023;SDS011;72676;47.526;8.538;2024-01-10T09:34:17;75.00;;;28.43;;
73023;SDS011;72676;47.526;8.538;2024-01-10T09:36:44;73.83;;;27.93;;
73023;SDS011;72676;47.526;8.538;2024-01-10T09:39:13;72.83;;;29.20;;
73023;SDS011;72676;47.526;8.538;2024-01-10T09:41:42;77.90;;;28.40;;
73023;SDS011;72676;47.526;8.538;2024-01-10T09:44:15;81.43;;;29.67;;
73023;SDS011;72676;47.526;8.538;2024-01-10T09:46:45;80.83;;;28.60;;
73023;SDS011;72676;47.526;8.538;2024-01-10T09:49:14;83.07;;;30.13;;
73023;SDS011;72676;47.526;8.538;2024-01-10T09:51:40;72.77;;;27.40;;
73023;SDS011;72676;47.526;8.538;2024-01-10T09:54:07;70.57;;;28.33;;
73023;SDS011;72676;47.526;8.538;2024-01-10T09:56:33;80.20;;;29.77;;
73023;SDS011;72676;47.526;8.538;2024-01-10T09:59:00;83.20;;;29.60;;
73023;SDS011;72676;47.526;8.538;2024-01-10T10:01:27;79.60;;;29.50;;
73023;SDS011;72676;47.526;8.538;2024-01-10T10:03:54;82.80;;;29.80;;
73023;SDS011;72676;47.526;8.538;2024-01-10T10:06:22;70.53;;;28.77;;
73023;SDS011;72676;47.526;8.538;2024-01-10T10:08:49;77.97;;;29.87;;
73023;SDS011;72676;47.526;8.538;2024-01-10T10:11:17;82.40;;;31.87;;
73023;SDS011;72676;47.526;8.538;2024-01-10T10:13:43;83.20;;;31.73;;
73023;SDS011;72676;47.526;8.538;2024-01-10T10:16:10;86.63;;;29.67;;
73023;SDS011;72676;47.526;8.538;2024-01-10T10:18:39;83.10;;;31.50;;
73023;SDS011;72676;47.526;8.538;2024-01-10T10:21:13;83.03;;;29.53;;
73023;SDS011;72676;47.526;8.538;2024-01-10T10:23:41;93.70;;;33.33;;
73023;SDS011;72676;47.526;8.538;2024-01-10T10:26:09;90.83;;;31.00;;
73023;SDS011;72676;47.526;8.538;2024-01-10T10:28:49;87.87;;;31.10;;
73023;SDS011;72676;47.526;8.538;2024-01-10T10:31:17;87.03;;;32.27;;
73023;SDS011;72676;47.526;8.538;2024-01-10T10:33:44;89.90;;;31.50;;
73023;SDS011;72676;47.526;8.538;2024-01-10T10:36:15;74.53;;;27.43;;
73023;SDS011;72676;47.526;8.538;2024-01-10T10:38:42;75.10;;;30.03;;
73023;SDS011;72676;47.526;8.538;2024-01-10T10:41:09;87.07;;;30.67;;
73023;SDS011;72676;47.526;8.538;2024-01-10T10:43:39;86.13;;;31.00;;
73023;SDS011;72676;47.526;8.538;2024-01-10T10:46:07;86.57;;;31.27;;
73023;SDS011;72676;47.526;8.538;2024-01-10T10:48:42;71.57;;;29.13;;
73023;SDS011;72676;47.526;8.538;2024-01-10T10:51:17;72.13;;;27.20;;
73023;SDS011;72676;47.526;8.538;2024-01-10T10:53:51;84.57;;;30.77;;
73023;SDS011;72676;47.526;8.538;2024-01-10T10:56:18;81.37;;;30.07;;
73023;SDS011;72676;47.526;8.538;2024-01-10T10:58:44;85.50;;;31.33;;
73023;SDS011;72676;47.526;8.538;2024-01-10T11:01:13;82.30;;;30.80;;
73023;SDS011;72676;47.526;8.538;2024-01-10T11:03:40;88.07;;;31.17;;
73023;SDS011;72676;47.526;8.538;2024-01-10T11:06:09;82.83;;;31.23;;
73023;SDS011;72676;47.526;8.538;2024-01-10T11:08:37;79.83;;;32.10;;
73023;SDS011;72676;47.526;8.538;2024-01-10T11:11:07;76.80;;;29.47;;
73023;SDS011;72676;47.526;8.538;2024-01-10T11:25:11;79.93;;;29.97;;
73023;SDS011;72676;47.526;8.538;2024-01-10T11:27:38;81.77;;;31.47;;
73023;SDS011;72676;47.526;8.538;2024-01-10T11:30:05;90.83;;;30.43;;
73023;SDS011;72676;47.526;8.538;2024-01-10T11:32:32;80.67;;;30.57;;
73023;SDS011;72676;47.526;8.538;2024-01-10T11:35:05;73.23;;;30.27;;
73023;SDS011;72676;47.526;8.538;2024-01-10T11:37:38;75.17;;;30.23;;
73023;SDS011;72676;47.526;8.538;2024-01-10T11:40:08;80.63;;;30.80;;
73023;SDS011;72676;47.526;8.538;2024-01-10T11:42:42;76.13;;;30.80;;
73023;SDS011;72676;47.526;8.538;2024-01-10T11:45:09;83.00;;;29.60;;
73023;SDS011;72676;47.526;8.538;2024-01-10T11:47:39;83.80;;;29.90;;
73023;SDS011;72676;47.526;8.538;2024-01-10T11:50:07;90.07;;;31.30;;
73023;SDS011;72676;47.526;8.538;2024-01-10T11:52:35;75.93;;;29.40;;
73023;SDS011;72676;47.526;8.538;2024-01-10T11:55:03;77.20;;;30.43;;
73023;SDS011;72676;47.526;8.538;2024-01-10T11:57:33;83.70;;;28.37;;
73023;SDS011;72676;47.526;8.538;2024-01-10T12:00:00;69.13;;;25.80;;
73023;SDS011;72676;47.526;8.538;2024-01-10T12:02:29;79.67;;;28.23;;
73023;SDS011;72676;47.526;8.538;2024-01-10T12:04:56;68.53;;;24.33;;
73023;SDS011;72676;47.526;8.538;2024-01-10T12:07:23;70.80;;;27.70;;
73023;SDS011;72676;47.526;8.538;2024-01-10T12:09:54;73.80;;;27.03;;
73023;SDS011;72676;47.526;8.538;2024-01-10T12:12:21;71.63;;;24.60;;
73023;SDS011;72676;47.526;8.538;2024-01-10T12:14:47;68.57;;;25.50;;
73023;SDS011;72676;47.526;8.538;2024-01-10T12:17:14;65.83;;;26.27;;
73023;SDS011;72676;47.526;8.538;2024-01-10T12:19:41;69.57;;;24.73;;
73023;SDS011;72676;47.526;8.538;2024-01-10T12:22:12;67.77;;;25.70;;
73023;SDS011;72676;47.526;8.538;2024-01-10T12:24:42;71.60;;;25.77;;
73023;SDS011;72676;47.526;8.538;2024-01-10T12:27:12;71.40;;;25.47;;
73023;SDS011;72676;47.526;8.538;2024-01-10T12:29:38;77.70;;;26.90;;
73023;SDS011;72676;47.526;8.538;2024-01-10T12:32:07;73.83;;;27.03;;
73023;SDS011;72676;47.526;8.538;2024-01-10T12:34:37;65.93;;;24.17;;
73023;SDS011;72676;47.526;8.538;2024-01-10T12:37:05;68.33;;;25.60;;
73023;SDS011;72676;47.526;8.538;2024-01-10T12:39:32;68.07;;;25.73;;
73023;SDS011;72676;47.526;8.538;2024-01-10T12:41:58;66.10;;;24.10;;
73023;SDS011;72676;47.526;8.538;2024-01-10T12:44:31;62.10;;;23.20;;
73023;SDS011;72676;47.526;8.538;2024-01-10T12:46:58;74.80;;;26.00;;
73023;SDS011;72676;47.526;8.538;2024-01-10T12:49:26;78.13;;;26.37;;
73023;SDS011;72676;47.526;8.538;2024-01-10T12:51:53;61.20;;;24.47;;
73023;SDS011;72676;47.526;8.538;2024-01-10T12:54:19;70.63;;;24.83;;
73023;SDS011;72676;47.526;8.538;2024-01-10T12:56:46;73.50;;;26.10;;
73023;SDS011;72676;47.526;8.538;2024-01-10T12:59:12;62.00;;;24.67;;
73023;SDS011;72676;47.526;8.538;2024-01-10T13:01:39;72.20;;;24.40;;
73023;SDS011;72676;47.526;8.538;2024-01-10T13:04:08;73.50;;;24.63;;
73023;SDS011;72676;47.526;8.538;2024-01-10T13:06:35;65.23;;;25.10;;
73023;SDS011;72676;47.526;8.538;2024-01-10T13:09:02;86.07;;;28.10;;
73023;SDS011;72676;47.526;8.538;2024-01-10T13:11:28;62.37;;;25.37;;
73023;SDS011;72676;47.526;8.538;2024-01-10T13:13:56;71.07;;;25.57;;
73023;SDS011;72676;47.526;8.538;2024-01-10T13:16:23;68.50;;;25.63;;
73023;SDS011;72676;47.526;8.538;2024-01-10T13:18:50;66.83;;;27.37;;
73023;SDS011;72676;47.526;8.538;2024-01-10T13:21:17;77.37;;;26.17;;
73023;SDS011;72676;47.526;8.538;2024-01-10T13:23:43;66.67;;;25.80;;
73023;SDS011;72676;47.526;8.538;2024-01-10T13:26:11;62.80;;;24.50;;
73023;SDS011;72676;47.526;8.538;2024-01-10T13:28:38;70.30;;;25.30;;
73023;SDS011;72676;47.526;8.538;2024-01-10T13:31:04;66.30;;;24.57;;
73023;SDS011;72676;47.526;8.538;2024-01-10T13:33:31;69.17;;;26.30;;
73023;SDS011;72676;47.526;8.538;2024-01-10T13:35:59;72.67;;;25.70;;
73023;SDS011;72676;47.526;8.538;2024-01-10T13:38:26;71.50;;;26.03;;
73023;SDS011;72676;47.526;8.538;2024-01-10T13:40:53;66.80;;;25.70;;
73023;SDS011;72676;47.526;8.538;2024-01-10T13:43:20;68.83;;;24.97;;
73023;SDS011;72676;47.526;8.538;2024-01-10T13:45:46;65.37;;;23.70;;
73023;SDS011;72676;47.526;8.538;2024-01-10T13:48:12;63.37;;;24.23;;
73023;SDS011;72676;47.526;8.538;2024-01-10T13:50:39;64.30;;;24.30;;
73023;SDS011;72676;47.526;8.538;2024-01-10T13:53:06;68.97;;;25.33;;
73023;SDS011;72676;47.526;8.538;2024-01-10T13:55:32;71.07;;;24.93;;
73023;SDS011;72676;47.526;8.538;2024-01-10T13:58:01;62.30;;;23.90;;
73023;SDS011;72676;47.526;8.538;2024-01-10T14:00:27;72.20;;;26.60;;
73023;SDS011;72676;47.526;8.538;2024-01-10T14:02:54;72.37;;;26.50;;
73023;SDS011;72676;47.526;8.538;2024-01-10T14:05:26;69.97;;;26.53;;
73023;SDS011;72676;47.526;8.538;2024-01-10T14:07:53;73.90;;;27.30;;
73023;SDS011;72676;47.526;8.538;2024-01-10T14:10:20;68.77;;;25.53;;
73023;SDS011;72676;47.526;8.538;2024-01-10T14:12:47;74.80;;;26.50;;
73023;SDS011;72676;47.526;8.538;2024-01-10T14:15:14;65.43;;;25.17;;
73023;SDS011;72676;47.526;8.538;2024-01-10T14:17:41;74.67;;;25.30;;
73023;SDS011;72676;47.526;8.538;2024-01-10T14:20:08;77.30;;;26.70;;
73023;SDS011;72676;47.526;8.538;2024-01-10T14:22:36;73.30;;;25.67;;
73023;SDS011;72676;47.526;8.538;2024-01-10T14:25:03;75.93;;;28.00;;
73023;SDS011;72676;47.526;8.538;2024-01-10T14:27:31;64.43;;;24.87;;
73023;SDS011;72676;47.526;8.538;2024-01-10T14:29:58;74.47;;;28.07;;
73023;SDS011;72676;47.526;8.538;2024-01-10T14:32:25;63.90;;;26.00;;